createdAt,value
2022-10-31T00:01:37.282Z,97007.94
2022-10-31T00:04:07.762Z,96998.63
2022-10-31T00:06:36.084Z,96993.28
2022-10-31T00:09:06.510Z,97026.66
2022-10-31T00:11:34.715Z,97025.31
2022-10-31T00:14:03.556Z,97003.78
2022-10-31T00:16:32.172Z,97043.34
2022-10-31T00:19:03.205Z,96992.75
2022-10-31T00:21:33.640Z,97032.94
2022-10-31T00:24:02.795Z,96988.19
2022-10-31T00:26:32.126Z,96998.72
2022-10-31T00:29:00.707Z,97039.13
2022-10-31T00:31:29.164Z,97041.25
2022-10-31T00:33:57.530Z,97004.13
2022-10-31T00:36:28.466Z,97031.50
2022-10-31T00:38:59.874Z,96986.69
2022-10-31T00:41:28.147Z,97026.38
2022-10-31T00:43:56.435Z,97010.88
2022-10-31T00:46:25.783Z,97031.22
2022-10-31T00:48:54.225Z,97022.13
2022-10-31T00:51:22.469Z,97019.13
2022-10-31T00:53:50.675Z,97023.25
2022-10-31T00:56:20.830Z,97027.97
2022-10-31T00:58:49.637Z,97013.97
2022-10-31T01:01:17.910Z,97035.72
2022-10-31T01:03:46.885Z,97003.81
2022-10-31T01:06:17.910Z,97015.19
2022-10-31T01:08:46.109Z,96991.53
2022-10-31T01:11:18.501Z,97039.44
2022-10-31T01:13:49.511Z,97044.56
2022-10-31T01:16:19.998Z,97042.59
2022-10-31T01:18:48.932Z,97037.34
2022-10-31T01:21:20.310Z,96997.69
2022-10-31T01:23:51.190Z,97107.47
2022-10-31T01:26:22.034Z,97019.09
2022-10-31T01:28:55.185Z,97055.28
2022-10-31T01:31:26.659Z,97052.00
2022-10-31T01:33:55.769Z,97007.81
2022-10-31T01:36:27.575Z,97015.25
2022-10-31T01:38:59.557Z,97014.44
2022-10-31T01:41:31.751Z,96982.34
2022-10-31T01:44:04.099Z,96976.44
2022-10-31T01:46:37.386Z,97017.63
2022-10-31T01:49:13.613Z,97010.81
2022-10-31T01:51:48.284Z,97000.97
2022-10-31T01:54:20.630Z,97066.38
2022-10-31T01:56:53.889Z,97027.44
2022-10-31T01:59:27.608Z,97014.41
2022-10-31T02:01:56.572Z,96967.84
2022-10-31T02:04:27.176Z,96941.22
2022-10-31T02:07:00.868Z,97014.75
2022-10-31T02:09:31.397Z,97012.94
2022-10-31T02:12:01.566Z,96953.75
2022-10-31T02:14:33.383Z,96982.38
2022-10-31T02:17:01.612Z,97010.34
2022-10-31T02:19:39.899Z,97003.13
2022-10-31T02:22:15.578Z,96981.34
2022-10-31T02:24:56.196Z,96935.66
2022-10-31T02:27:43.323Z,96975.31
2022-10-31T02:30:16.590Z,97039.53
2022-10-31T02:32:58.028Z,96958.88
2022-10-31T02:35:39.484Z,97009.84
2022-10-31T02:38:35.989Z,96978.88
2022-10-31T02:41:12.798Z,97017.97
2022-10-31T02:44:04.423Z,96930.13
2022-10-31T02:46:40.470Z,97018.28
2022-10-31T02:49:22.255Z,96991.06
2022-10-31T02:51:50.683Z,97015.38
2022-10-31T02:54:22.215Z,97057.78
2022-10-31T02:56:59.666Z,97020.09
2022-10-31T02:59:31.055Z,97018.72
2022-10-31T03:02:35.482Z,97017.34
2022-10-31T03:05:54.505Z,96967.13
2022-10-31T03:08:37.455Z,97023.41
2022-10-31T03:11:09.255Z,97034.44
2022-10-31T03:13:47.297Z,96999.41
2022-10-31T03:16:21.102Z,97010.03
2022-10-31T03:18:54.483Z,96997.22
2022-10-31T03:21:26.053Z,96999.69
2022-10-31T03:23:57.018Z,96965.47
2022-10-31T03:26:26.149Z,96921.38
2022-10-31T03:28:59.138Z,97038.06
2022-10-31T03:31:33.020Z,97005.22
2022-10-31T03:34:03.103Z,97019.31
2022-10-31T03:36:34.462Z,97008.66
2022-10-31T03:39:06.720Z,97019.28
2022-10-31T03:41:43.160Z,97045.22
2022-10-31T03:44:17.852Z,96982.31
2022-10-31T03:46:49.784Z,97015.16
2022-10-31T03:49:18.687Z,97018.31
2022-10-31T03:51:52.136Z,97027.13
2022-10-31T03:54:27.700Z,97018.19
2022-10-31T03:57:03.359Z,97004.09
2022-10-31T03:59:37.798Z,97016.25
2022-10-31T04:02:12.967Z,97016.53
2022-10-31T04:04:42.591Z,97008.09
2022-10-31T04:07:12.582Z,97018.84
2022-10-31T04:09:46.940Z,96988.91
2022-10-31T04:12:18.299Z,97032.56
2022-10-31T04:15:01.090Z,97019.03
2022-10-31T04:17:35.308Z,96965.22
2022-10-31T04:20:04.655Z,96997.75
2022-10-31T04:22:32.959Z,96983.56
2022-10-31T04:25:03.108Z,97000.66
2022-10-31T04:27:31.345Z,96969.63
2022-10-31T04:30:00.450Z,97011.00
2022-10-31T04:32:29.861Z,96964.94
2022-10-31T04:34:58.089Z,96988.66
2022-10-31T04:37:26.380Z,96923.41
2022-10-31T04:39:54.661Z,96962.44
2022-10-31T04:42:59.905Z,96991.03
2022-10-31T04:45:30.419Z,96988.66
2022-10-31T04:47:58.947Z,96979.97
2022-10-31T04:50:52.573Z,96969.63
2022-10-31T04:53:20.887Z,97021.91
2022-10-31T04:56:09.559Z,96982.59
2022-10-31T04:58:44.109Z,96980.13
2022-10-31T05:01:18.202Z,96966.03
2022-10-31T05:03:47.031Z,96983.72
2022-10-31T05:06:15.283Z,96963.28
2022-10-31T05:08:48.540Z,97006.44
2022-10-31T05:11:17.037Z,96959.41
2022-10-31T05:13:47.533Z,97011.13
2022-10-31T05:16:15.996Z,96941.47
2022-10-31T05:19:12.976Z,96926.59
2022-10-31T05:22:09.837Z,96946.16
2022-10-31T05:24:39.714Z,96945.91
2022-10-31T05:27:07.945Z,97000.22
2022-10-31T05:29:37.744Z,96934.56
2022-10-31T05:32:06.066Z,96980.50
2022-10-31T05:34:52.571Z,96911.94
2022-10-31T05:37:41.222Z,96987.13
2022-10-31T05:40:12.633Z,96962.59
2022-10-31T05:42:41.785Z,96973.31
2022-10-31T05:45:14.622Z,96970.41
2022-10-31T05:47:53.799Z,96947.97
2022-10-31T05:50:44.559Z,96964.63
2022-10-31T05:53:13.333Z,96960.50
2022-10-31T05:55:42.608Z,96959.25
2022-10-31T05:58:14.482Z,96947.81
2022-10-31T06:00:51.616Z,96910.56
2022-10-31T06:03:20.309Z,96962.00
2022-10-31T06:05:54.942Z,96943.38
2022-10-31T06:08:26.378Z,96986.44
2022-10-31T06:10:56.700Z,96983.78
2022-10-31T06:13:47.595Z,96967.38
2022-10-31T06:16:23.164Z,96965.06
2022-10-31T06:18:52.783Z,96974.03
2022-10-31T06:21:21.096Z,96969.06
2022-10-31T06:23:52.648Z,96975.28
2022-10-31T06:26:44.787Z,96956.66
2022-10-31T06:29:13.133Z,96968.53
2022-10-31T06:32:02.542Z,96974.88
2022-10-31T06:34:32.266Z,96935.69
2022-10-31T06:37:01.800Z,96927.13
2022-10-31T06:39:31.917Z,96952.66
2022-10-31T06:42:00.176Z,96906.59
2022-10-31T06:44:29.483Z,96977.06
2022-10-31T06:47:21.940Z,96924.94
2022-10-31T06:50:08.817Z,96912.25
2022-10-31T06:52:37.109Z,96973.22
2022-10-31T06:55:07.261Z,96953.34
2022-10-31T06:57:35.832Z,96967.44
2022-10-31T07:00:31.914Z,96913.59
2022-10-31T07:03:09.587Z,96973.22
2022-10-31T07:05:38.893Z,96942.56
2022-10-31T07:08:21.733Z,96943.09
2022-10-31T07:10:55.121Z,96976.34
2022-10-31T07:13:26.531Z,96914.22
2022-10-31T07:16:05.597Z,96947.75
2022-10-31T07:18:37.843Z,96938.03
2022-10-31T07:21:06.855Z,96948.78
2022-10-31T07:23:35.220Z,96966.47
2022-10-31T07:26:23.392Z,96995.13
2022-10-31T07:28:51.624Z,96942.88
2022-10-31T07:31:23.408Z,96922.63
2022-10-31T07:33:54.923Z,96933.31
2022-10-31T07:36:43.351Z,96948.78
2022-10-31T07:39:14.394Z,96921.78
2022-10-31T07:41:42.930Z,96975.94
2022-10-31T07:44:38.916Z,96924.50
2022-10-31T07:47:25.591Z,96935.47
2022-10-31T07:50:31.316Z,96957.22
2022-10-31T07:53:37.661Z,96937.25
2022-10-31T07:56:15.956Z,96939.88
2022-10-31T07:58:44.728Z,96953.03
2022-10-31T08:04:02.161Z,96943.38
2022-10-31T08:06:50.523Z,96974.88
2022-10-31T08:09:28.585Z,96979.00
2022-10-31T08:12:00.185Z,96931.16
2022-10-31T08:14:29.164Z,96955.06
2022-10-31T08:16:58.044Z,96896.13
2022-10-31T08:19:32.150Z,96950.28
2022-10-31T08:22:01.728Z,96825.94
2022-10-31T08:24:30.663Z,96928.31
2022-10-31T08:27:00.256Z,96896.75
2022-10-31T08:29:28.552Z,96945.50
2022-10-31T08:31:56.826Z,96974.25
2022-10-31T08:34:43.730Z,96938.34
2022-10-31T08:37:39.312Z,96903.41
2022-10-31T08:40:09.448Z,96884.25
2022-10-31T08:42:37.644Z,96860.81
2022-10-31T08:45:07.039Z,96900.06
2022-10-31T08:47:35.701Z,96898.75
2022-10-31T08:50:04.208Z,96909.28
2022-10-31T08:52:58.738Z,96941.28
2022-10-31T08:55:22.913Z,96924.59
2022-10-31T08:58:07.400Z,96945.25
2022-10-31T09:00:45.525Z,96911.81
2022-10-31T09:03:21.632Z,96942.81
2022-10-31T09:05:57.562Z,96911.66
2022-10-31T09:08:27.835Z,96873.88
2022-10-31T09:11:00.381Z,96880.97
2022-10-31T09:13:47.106Z,96911.69
2022-10-31T09:16:33.801Z,96920.13
2022-10-31T09:19:03.536Z,96898.78
2022-10-31T09:21:33.417Z,96905.63
2022-10-31T09:24:01.647Z,96907.28
2022-10-31T09:26:31.573Z,96889.38
2022-10-31T09:29:11.364Z,96915.81
2022-10-31T09:31:44.794Z,96891.75
2022-10-31T09:34:28.274Z,96883.09
2022-10-31T09:37:08.220Z,96908.44
2022-10-31T09:39:37.442Z,96852.78
2022-10-31T09:42:39.342Z,96920.88
2022-10-31T09:45:23.748Z,96866.81
2022-10-31T09:48:15.320Z,96905.75
2022-10-31T09:51:03.668Z,96896.25
2022-10-31T09:53:52.493Z,96840.69
2022-10-31T09:56:25.475Z,96868.22
2022-10-31T09:59:02.071Z,96911.59
2022-10-31T10:01:42.499Z,96872.53
2022-10-31T10:04:32.511Z,96857.09
2022-10-31T10:07:16.812Z,96866.59
2022-10-31T10:09:46.577Z,96837.19
2022-10-31T10:13:09.341Z,96845.88
2022-10-31T10:16:03.246Z,96836.94
2022-10-31T10:18:45.943Z,96846.81
2022-10-31T10:21:28.351Z,96869.00
2022-10-31T10:24:15.122Z,96805.91
2022-10-31T10:26:52.472Z,96799.78
2022-10-31T10:29:35.407Z,96825.84
2022-10-31T10:32:13.711Z,96869.06
2022-10-31T10:34:47.675Z,96877.25
2022-10-31T10:37:28.116Z,96790.38
2022-10-31T10:40:09.201Z,96854.34
2022-10-31T10:42:55.882Z,96812.91
2022-10-31T10:45:41.766Z,96841.63
2022-10-31T10:48:18.780Z,96834.25
2022-10-31T10:50:51.015Z,96819.47
2022-10-31T10:53:50.089Z,96854.13
2022-10-31T10:56:22.960Z,96827.28
2022-10-31T10:58:58.295Z,96826.38
2022-10-31T11:01:53.248Z,96859.38
2022-10-31T11:04:32.827Z,96811.16
2022-10-31T11:07:05.561Z,96777.94
2022-10-31T11:09:34.868Z,96850.50
2022-10-31T11:12:10.332Z,96808.19
2022-10-31T11:14:46.860Z,96758.44
2022-10-31T11:17:27.548Z,96794.16
2022-10-31T11:20:06.708Z,96804.00
2022-10-31T11:22:35.005Z,96821.72
2022-10-31T11:25:13.695Z,96796.66
2022-10-31T11:27:41.949Z,96810.94
2022-10-31T11:30:14.718Z,96746.81
2022-10-31T11:32:50.060Z,96793.88
2022-10-31T11:35:22.261Z,96772.84
2022-10-31T11:37:53.467Z,96740.00
2022-10-31T11:40:25.063Z,96739.66
2022-10-31T11:42:55.257Z,96803.44
2022-10-31T11:45:34.590Z,96770.75
2022-10-31T11:48:07.549Z,96754.78
2022-10-31T11:50:41.630Z,96748.31
2022-10-31T11:53:17.773Z,96733.47
2022-10-31T11:55:47.926Z,96762.53
2022-10-31T11:58:24.311Z,96744.16
2022-10-31T12:00:55.089Z,96763.47
2022-10-31T12:03:44.904Z,96739.16
2022-10-31T12:06:24.676Z,96779.28
2022-10-31T12:08:53.003Z,96771.13
2022-10-31T12:11:43.127Z,96690.97
2022-10-31T12:14:26.114Z,96764.09
2022-10-31T12:17:01.949Z,96722.59
2022-10-31T12:19:43.917Z,96762.84
2022-10-31T12:22:23.490Z,96754.06
2022-10-31T12:25:21.305Z,96727.59
2022-10-31T12:28:16.663Z,96690.81
2022-10-31T12:30:59.555Z,96720.66
2022-10-31T12:33:48.887Z,96706.22
2022-10-31T12:36:35.260Z,96667.59
2022-10-31T12:39:34.272Z,96687.53
2022-10-31T12:42:14.099Z,96732.53
2022-10-31T12:45:05.325Z,96686.50
2022-10-31T12:48:02.064Z,96717.69
2022-10-31T12:50:49.437Z,96669.59
2022-10-31T12:53:32.171Z,96672.25
2022-10-31T12:56:22.111Z,96674.03
2022-10-31T12:58:57.799Z,96665.34
2022-10-31T13:01:31.806Z,96611.75
2022-10-31T13:04:06.582Z,96681.31
2022-10-31T13:06:44.481Z,96668.53
2022-10-31T13:09:19.260Z,96601.53
2022-10-31T13:11:55.597Z,96683.75
2022-10-31T13:14:29.116Z,96646.03
2022-10-31T13:16:58.381Z,96728.19
2022-10-31T13:19:32.533Z,96660.50
2022-10-31T13:22:08.316Z,96660.97
2022-10-31T13:24:41.572Z,96714.66
2022-10-31T13:27:21.197Z,96626.81
2022-10-31T13:30:03.028Z,96659.66
2022-10-31T13:32:43.128Z,96657.97
2022-10-31T13:35:20.799Z,96667.38
2022-10-31T13:37:59.580Z,96674.22
2022-10-31T13:40:40.744Z,96666.69
2022-10-31T13:43:34.997Z,96583.06
2022-10-31T13:46:03.350Z,96602.06
2022-10-31T13:48:42.198Z,96618.81
2022-10-31T13:51:12.778Z,96611.41
2022-10-31T13:53:46.434Z,96637.66
2022-10-31T13:56:23.100Z,96631.28
2022-10-31T13:59:15.963Z,96555.38
2022-10-31T14:01:51.807Z,96577.56
2022-10-31T14:04:25.848Z,96656.22
2022-10-31T14:07:06.997Z,96566.94
2022-10-31T14:09:39.203Z,96565.91
2022-10-31T14:12:13.669Z,96575.59
2022-10-31T14:14:52.065Z,96597.50
2022-10-31T14:17:24.380Z,96588.88
2022-10-31T14:20:20.450Z,96576.22
2022-10-31T14:22:48.828Z,96613.53
2022-10-31T14:25:33.626Z,96568.94
2022-10-31T14:28:05.298Z,96596.03
2022-10-31T14:30:35.254Z,96612.88
2022-10-31T14:33:20.523Z,96596.50
2022-10-31T14:35:57.652Z,96571.72
2022-10-31T14:38:49.674Z,96556.22
2022-10-31T14:41:45.531Z,96624.38
2022-10-31T14:44:44.012Z,96564.00
2022-10-31T14:47:26.895Z,96584.72
2022-10-31T14:50:22.375Z,96583.78
2022-10-31T14:52:55.146Z,96579.47
2022-10-31T14:55:25.626Z,96581.47
2022-10-31T14:58:00.568Z,96558.53
2022-10-31T15:00:30.405Z,96544.72
2022-10-31T15:03:41.360Z,96580.94
2022-10-31T15:06:17.980Z,96569.84
2022-10-31T15:08:48.677Z,96555.53
2022-10-31T15:11:20.569Z,96587.91
2022-10-31T15:13:50.945Z,96552.03
2022-10-31T15:16:22.946Z,96572.63
2022-10-31T15:18:56.986Z,96544.75
2022-10-31T15:21:29.156Z,96573.19
2022-10-31T15:24:00.374Z,96543.13
2022-10-31T15:26:37.017Z,96565.34
2022-10-31T15:29:12.484Z,96559.09
2022-10-31T15:31:40.911Z,96563.91
2022-10-31T15:34:23.683Z,96626.38
2022-10-31T15:36:52.137Z,96632.44
2022-10-31T15:39:20.973Z,96596.47
2022-10-31T15:41:55.149Z,96661.28
2022-10-31T15:44:30.128Z,96593.94
2022-10-31T15:47:00.369Z,96574.09
2022-10-31T15:49:35.889Z,96584.44
2022-10-31T15:52:13.088Z,96537.50
2022-10-31T15:54:51.454Z,96589.59
2022-10-31T15:57:20.046Z,96581.88
2022-10-31T15:59:50.916Z,96555.69
2022-10-31T16:02:23.961Z,96595.44
2022-10-31T16:04:57.574Z,96523.81
2022-10-31T16:07:26.885Z,96593.78
2022-10-31T16:09:58.802Z,96515.84
2022-10-31T16:12:37.744Z,96570.88
2022-10-31T16:15:07.542Z,96540.97
2022-10-31T16:17:36.048Z,96579.84
2022-10-31T16:20:08.419Z,96533.63
2022-10-31T16:22:38.919Z,96524.59
2022-10-31T16:25:13.424Z,96576.91
2022-10-31T16:27:42.156Z,96517.97
2022-10-31T16:30:39.664Z,96550.28
2022-10-31T16:33:26.827Z,96520.00
2022-10-31T16:36:09.518Z,96569.88
2022-10-31T16:38:44.298Z,96647.66
2022-10-31T16:41:12.492Z,96538.34
2022-10-31T16:43:40.739Z,96558.28
2022-10-31T16:46:17.092Z,96560.88
2022-10-31T16:48:45.315Z,96576.66
2022-10-31T16:51:15.106Z,96559.06
2022-10-31T16:53:46.685Z,96571.50
2022-10-31T16:56:19.647Z,96537.03
2022-10-31T16:58:47.894Z,96581.94
2022-10-31T17:01:40.195Z,96560.25
2022-10-31T17:04:15.267Z,96593.34
2022-10-31T17:06:45.313Z,96583.06
2022-10-31T17:09:13.531Z,96596.94
2022-10-31T17:11:49.656Z,96587.47
2022-10-31T17:14:18.789Z,96579.66
2022-10-31T17:16:47.115Z,96571.47
2022-10-31T17:19:15.695Z,96595.56
2022-10-31T17:21:45.317Z,96559.63
2022-10-31T17:24:15.712Z,96587.91
2022-10-31T17:26:44.288Z,96568.16
2022-10-31T17:29:12.835Z,96586.81
2022-10-31T17:31:41.098Z,96579.31
2022-10-31T17:34:10.204Z,96593.97
2022-10-31T17:36:38.765Z,96555.91
2022-10-31T17:39:09.697Z,96600.94
2022-10-31T17:41:37.941Z,96520.06
2022-10-31T17:44:06.466Z,96546.69
2022-10-31T17:46:35.011Z,96562.03
2022-10-31T17:49:04.992Z,96572.38
2022-10-31T17:51:33.279Z,96599.78
2022-10-31T17:54:01.632Z,96551.53
2022-10-31T17:56:31.172Z,96558.34
2022-10-31T17:58:59.608Z,96528.28
2022-10-31T18:01:27.990Z,96540.28
2022-10-31T18:03:56.287Z,96549.44
2022-10-31T18:06:24.540Z,96559.53
2022-10-31T18:08:52.802Z,96548.63
2022-10-31T18:11:23.147Z,96516.63
2022-10-31T18:13:58.629Z,96513.69
2022-10-31T18:16:27.963Z,96526.72
2022-10-31T18:19:01.677Z,96555.06
2022-10-31T18:21:30.441Z,96515.88
2022-10-31T18:24:02.865Z,96546.03
2022-10-31T18:26:31.157Z,96534.13
2022-10-31T18:29:01.631Z,96547.59
2022-10-31T18:31:30.253Z,96526.69
2022-10-31T18:33:58.933Z,96541.94
2022-10-31T18:36:27.239Z,96486.13
2022-10-31T18:38:55.768Z,96486.94
2022-10-31T18:41:24.247Z,96524.34
2022-10-31T18:43:56.021Z,96481.03
2022-10-31T18:46:25.630Z,96520.44
2022-10-31T18:48:54.142Z,96530.91
2022-10-31T18:51:22.886Z,96512.78
2022-10-31T18:53:52.949Z,96553.16
2022-10-31T18:56:21.886Z,96562.19
2022-10-31T18:58:50.836Z,96520.44
2022-10-31T19:01:21.296Z,96545.88
2022-10-31T19:03:56.297Z,96524.16
2022-10-31T19:06:35.000Z,96497.19
2022-10-31T19:09:09.700Z,96521.88
2022-10-31T19:11:39.886Z,96495.06
2022-10-31T19:14:10.943Z,96551.72
2022-10-31T19:16:39.219Z,96537.63
2022-10-31T19:19:09.949Z,96501.84
2022-10-31T19:21:38.255Z,96499.16
2022-10-31T19:24:07.147Z,96492.94
2022-10-31T19:26:35.789Z,96510.75
2022-10-31T19:29:04.391Z,96511.94
2022-10-31T19:31:32.699Z,96491.66
2022-10-31T19:34:00.909Z,96494.34
2022-10-31T19:36:30.628Z,96514.41
2022-10-31T19:38:58.851Z,96514.75
2022-10-31T19:41:29.811Z,96485.66
2022-10-31T19:44:01.131Z,96515.91
2022-10-31T19:49:17.884Z,96538.31
2022-10-31T19:51:47.489Z,96517.31
2022-10-31T19:54:15.820Z,96513.16
2022-10-31T19:56:44.086Z,96472.94
2022-10-31T19:59:12.337Z,96526.00
2022-10-31T20:01:40.671Z,96461.72
2022-10-31T20:04:08.964Z,96428.44
2022-10-31T20:06:39.675Z,96471.72
2022-10-31T20:09:13.493Z,96494.06
2022-10-31T20:11:43.714Z,96440.06
2022-10-31T20:14:14.813Z,96411.56
2022-10-31T20:16:43.603Z,96432.84
2022-10-31T20:19:11.900Z,96444.97
2022-10-31T20:21:41.646Z,96433.63
2022-10-31T20:24:12.098Z,96452.78
2022-10-31T20:26:41.874Z,96433.94
2022-10-31T20:29:15.897Z,96432.66
2022-10-31T20:31:45.567Z,96449.00
2022-10-31T20:34:14.620Z,96458.50
2022-10-31T20:36:43.005Z,96489.47
2022-10-31T20:39:12.819Z,96482.84
2022-10-31T20:41:41.053Z,96464.41
2022-10-31T20:44:09.406Z,96508.53
2022-10-31T20:46:37.693Z,96475.56
2022-10-31T20:49:05.962Z,96525.72
2022-10-31T20:51:34.314Z,96465.97
2022-10-31T20:54:02.568Z,96491.00
2022-10-31T20:56:32.497Z,96525.19
2022-10-31T20:59:00.748Z,96530.19
2022-10-31T21:01:31.469Z,96515.84
2022-10-31T21:04:11.938Z,96524.97
2022-10-31T21:06:43.012Z,96512.84
2022-10-31T21:09:14.956Z,96523.78
2022-10-31T21:11:45.073Z,96499.66
2022-10-31T21:14:13.557Z,96532.22
2022-10-31T21:16:41.815Z,96542.78
2022-10-31T21:19:10.053Z,96472.56
2022-10-31T21:21:38.459Z,96492.97
2022-10-31T21:24:10.278Z,96465.84
2022-10-31T21:26:42.379Z,96537.09
2022-10-31T21:29:13.626Z,96530.94
2022-10-31T21:31:42.684Z,96533.84
2022-10-31T21:34:11.632Z,96568.38
2022-10-31T21:36:39.909Z,96535.09
2022-10-31T21:39:09.888Z,96587.59
2022-10-31T21:41:38.368Z,96567.19
2022-10-31T21:44:07.075Z,96523.75
2022-10-31T21:46:38.545Z,96563.78
2022-10-31T21:49:06.873Z,96557.44
2022-10-31T21:51:36.793Z,96505.81
2022-10-31T21:54:23.240Z,96525.28
2022-10-31T21:56:52.011Z,96464.66
2022-10-31T21:59:20.960Z,96535.28
2022-10-31T22:01:51.873Z,96531.38
2022-10-31T22:04:21.109Z,96520.47
2022-10-31T22:06:49.617Z,96545.22
2022-10-31T22:09:19.649Z,96547.88
2022-10-31T22:11:48.294Z,96502.69
2022-10-31T22:14:16.862Z,96489.88
2022-10-31T22:16:45.134Z,96475.06
2022-10-31T22:19:15.649Z,96422.94
2022-10-31T22:21:46.396Z,96496.31
2022-10-31T22:24:15.199Z,96472.00
2022-10-31T22:26:43.684Z,96516.09
2022-10-31T22:29:15.548Z,96518.56
2022-10-31T22:31:50.574Z,96507.09
2022-10-31T22:34:23.089Z,96538.47
2022-10-31T22:36:51.303Z,96529.13
2022-10-31T22:39:19.584Z,96516.97
2022-10-31T22:41:47.865Z,96498.84
2022-10-31T22:44:16.092Z,96496.16
2022-10-31T22:46:44.366Z,96531.44
2022-10-31T22:49:16.036Z,96446.78
2022-10-31T22:51:46.363Z,96505.59
2022-10-31T22:54:17.613Z,96531.25
2022-10-31T22:56:46.676Z,96495.06
2022-10-31T22:59:17.036Z,96530.47
2022-10-31T23:01:46.199Z,96487.97
2022-10-31T23:04:15.506Z,96507.44
2022-10-31T23:06:45.825Z,96531.78
2022-10-31T23:09:18.273Z,96526.19
2022-10-31T23:11:47.091Z,96521.09
2022-10-31T23:14:19.440Z,96500.19
2022-10-31T23:16:50.552Z,96471.41
2022-10-31T23:19:22.467Z,96513.41
2022-10-31T23:21:55.960Z,96510.25
2022-10-31T23:24:27.403Z,96492.50
2022-10-31T23:27:06.097Z,96517.84
2022-10-31T23:29:37.537Z,96508.97
2022-10-31T23:32:07.566Z,96520.16
2022-10-31T23:34:35.749Z,96504.22
2022-10-31T23:37:05.310Z,96501.22
2022-10-31T23:39:33.561Z,96512.56
2022-10-31T23:42:01.731Z,96521.59
2022-10-31T23:44:29.977Z,96510.41
2022-10-31T23:46:58.143Z,96480.50
2022-10-31T23:49:26.255Z,96561.94
2022-10-31T23:51:56.465Z,96527.56
2022-10-31T23:54:27.269Z,96496.63
2022-10-31T23:56:56.159Z,96491.00
2022-10-31T23:59:24.387Z,96517.84
